sensor_id;sensor_type;location;lat;lon;timestamp;P1;durP1;ratioP1;P2;durP2;ratioP2
71475;SDS011;59286;59.274;17.974;2022-08-19T00:01:52;24.60;;;16.88;;
71475;SDS011;59286;59.274;17.974;2022-08-19T00:04:20;19.50;;;15.50;;
71475;SDS011;59286;59.274;17.974;2022-08-19T00:06:49;22.98;;;15.75;;
71475;SDS011;59286;59.274;17.974;2022-08-19T00:09:15;19.67;;;15.57;;
71475;SDS011;59286;59.274;17.974;2022-08-19T00:11:43;23.40;;;16.98;;
71475;SDS011;59286;59.274;17.974;2022-08-19T00:14:09;25.38;;;18.05;;
71475;SDS011;59286;59.274;17.974;2022-08-19T00:16:38;22.98;;;18.02;;
71475;SDS011;59286;59.274;17.974;2022-08-19T00:19:04;22.42;;;18.05;;
71475;SDS011;59286;59.274;17.974;2022-08-19T00:21:30;22.52;;;18.48;;
71475;SDS011;59286;59.274;17.974;2022-08-19T00:23:56;22.58;;;18.33;;
71475;SDS011;59286;59.274;17.974;2022-08-19T00:26:26;25.73;;;18.48;;
71475;SDS011;59286;59.274;17.974;2022-08-19T00:28:52;24.38;;;18.77;;
71475;SDS011;59286;59.274;17.974;2022-08-19T00:31:18;22.98;;;17.63;;
71475;SDS011;59286;59.274;17.974;2022-08-19T00:33:44;23.35;;;15.70;;
71475;SDS011;59286;59.274;17.974;2022-08-19T00:36:09;32.00;;;21.52;;
71475;SDS011;59286;59.274;17.974;2022-08-19T00:38:36;29.48;;;20.13;;
71475;SDS011;59286;59.274;17.974;2022-08-19T00:41:04;26.02;;;18.80;;
71475;SDS011;59286;59.274;17.974;2022-08-19T00:43:30;32.08;;;20.98;;
71475;SDS011;59286;59.274;17.974;2022-08-19T00:45:56;38.75;;;24.80;;
71475;SDS011;59286;59.274;17.974;2022-08-19T00:48:21;32.60;;;21.75;;
71475;SDS011;59286;59.274;17.974;2022-08-19T00:50:48;33.33;;;21.42;;
71475;SDS011;59286;59.274;17.974;2022-08-19T00:53:19;31.73;;;21.20;;
71475;SDS011;59286;59.274;17.974;2022-08-19T00:55:47;31.20;;;20.88;;
71475;SDS011;59286;59.274;17.974;2022-08-19T00:58:16;24.27;;;17.15;;
71475;SDS011;59286;59.274;17.974;2022-08-19T01:00:43;28.40;;;19.20;;
71475;SDS011;59286;59.274;17.974;2022-08-19T01:03:10;24.63;;;18.60;;
71475;SDS011;59286;59.274;17.974;2022-08-19T01:05:37;31.20;;;20.85;;
71475;SDS011;59286;59.274;17.974;2022-08-19T01:08:06;28.50;;;20.35;;
71475;SDS011;59286;59.274;17.974;2022-08-19T01:10:33;25.70;;;18.42;;
71475;SDS011;59286;59.274;17.974;2022-08-19T01:13:04;25.73;;;18.02;;
71475;SDS011;59286;59.274;17.974;2022-08-19T01:15:31;27.23;;;18.42;;
71475;SDS011;59286;59.274;17.974;2022-08-19T01:18:04;26.15;;;19.65;;
71475;SDS011;59286;59.274;17.974;2022-08-19T01:20:33;27.25;;;19.55;;
71475;SDS011;59286;59.274;17.974;2022-08-19T01:22:59;30.13;;;19.45;;
71475;SDS011;59286;59.274;17.974;2022-08-19T01:25:28;30.45;;;18.45;;
71475;SDS011;59286;59.274;17.974;2022-08-19T01:27:59;24.77;;;18.55;;
71475;SDS011;59286;59.274;17.974;2022-08-19T01:30:26;29.40;;;19.35;;
71475;SDS011;59286;59.274;17.974;2022-08-19T01:32:54;21.60;;;16.88;;
71475;SDS011;59286;59.274;17.974;2022-08-19T01:35:21;26.20;;;17.02;;
71475;SDS011;59286;59.274;17.974;2022-08-19T01:37:51;24.08;;;16.50;;
71475;SDS011;59286;59.274;17.974;2022-08-19T01:40:20;23.35;;;17.20;;
71475;SDS011;59286;59.274;17.974;2022-08-19T01:42:48;23.05;;;17.90;;
71475;SDS011;59286;59.274;17.974;2022-08-19T01:45:14;24.15;;;16.67;;
71475;SDS011;59286;59.274;17.974;2022-08-19T01:47:40;28.55;;;18.48;;
71475;SDS011;59286;59.274;17.974;2022-08-19T01:50:06;27.63;;;18.27;;
71475;SDS011;59286;59.274;17.974;2022-08-19T01:52:40;33.22;;;18.83;;
71475;SDS011;59286;59.274;17.974;2022-08-19T01:55:08;27.15;;;18.95;;
71475;SDS011;59286;59.274;17.974;2022-08-19T01:57:41;25.58;;;18.58;;
71475;SDS011;59286;59.274;17.974;2022-08-19T02:00:11;25.15;;;18.60;;
71475;SDS011;59286;59.274;17.974;2022-08-19T02:02:39;27.80;;;19.40;;
71475;SDS011;59286;59.274;17.974;2022-08-19T02:05:05;27.45;;;19.17;;
71475;SDS011;59286;59.274;17.974;2022-08-19T02:07:33;34.15;;;20.70;;
71475;SDS011;59286;59.274;17.974;2022-08-19T02:10:01;34.05;;;21.17;;
71475;SDS011;59286;59.274;17.974;2022-08-19T02:12:34;32.70;;;20.93;;
71475;SDS011;59286;59.274;17.974;2022-08-19T02:15:00;35.13;;;21.98;;
71475;SDS011;59286;59.274;17.974;2022-08-19T02:17:27;31.60;;;19.65;;
71475;SDS011;59286;59.274;17.974;2022-08-19T02:19:53;29.60;;;21.15;;
71475;SDS011;59286;59.274;17.974;2022-08-19T02:22:20;28.10;;;20.08;;
71475;SDS011;59286;59.274;17.974;2022-08-19T02:24:45;34.33;;;21.50;;
71475;SDS011;59286;59.274;17.974;2022-08-19T02:27:12;22.27;;;18.05;;
71475;SDS011;59286;59.274;17.974;2022-08-19T02:29:38;32.90;;;22.83;;
71475;SDS011;59286;59.274;17.974;2022-08-19T02:32:04;22.48;;;18.10;;
71475;SDS011;59286;59.274;17.974;2022-08-19T02:34:29;26.65;;;19.88;;
71475;SDS011;59286;59.274;17.974;2022-08-19T02:36:55;34.25;;;22.00;;
71475;SDS011;59286;59.274;17.974;2022-08-19T02:39:20;35.65;;;23.90;;
71475;SDS011;59286;59.274;17.974;2022-08-19T02:41:46;40.28;;;25.58;;
71475;SDS011;59286;59.274;17.974;2022-08-19T02:44:11;34.67;;;24.10;;
71475;SDS011;59286;59.274;17.974;2022-08-19T02:46:37;38.72;;;24.20;;
71475;SDS011;59286;59.274;17.974;2022-08-19T02:49:04;38.65;;;23.95;;
71475;SDS011;59286;59.274;17.974;2022-08-19T02:51:32;34.78;;;23.70;;
71475;SDS011;59286;59.274;17.974;2022-08-19T02:54:03;36.45;;;23.77;;
71475;SDS011;59286;59.274;17.974;2022-08-19T02:56:30;32.95;;;24.30;;
71475;SDS011;59286;59.274;17.974;2022-08-19T02:58:56;37.80;;;26.50;;
71475;SDS011;59286;59.274;17.974;2022-08-19T03:01:30;31.50;;;22.13;;
71475;SDS011;59286;59.274;17.974;2022-08-19T03:03:57;40.33;;;23.63;;
71475;SDS011;59286;59.274;17.974;2022-08-19T03:06:24;43.65;;;27.60;;
71475;SDS011;59286;59.274;17.974;2022-08-19T03:08:50;42.00;;;28.50;;
71475;SDS011;59286;59.274;17.974;2022-08-19T03:11:20;43.42;;;25.95;;
71475;SDS011;59286;59.274;17.974;2022-08-19T03:13:48;36.17;;;23.92;;
71475;SDS011;59286;59.274;17.974;2022-08-19T03:16:16;30.92;;;21.42;;
71475;SDS011;59286;59.274;17.974;2022-08-19T03:18:42;38.92;;;25.67;;
71475;SDS011;59286;59.274;17.974;2022-08-19T03:21:08;40.42;;;24.80;;
71475;SDS011;59286;59.274;17.974;2022-08-19T03:23:35;37.00;;;25.02;;
71475;SDS011;59286;59.274;17.974;2022-08-19T03:26:04;30.73;;;22.55;;
71475;SDS011;59286;59.274;17.974;2022-08-19T03:28:31;38.50;;;24.08;;
71475;SDS011;59286;59.274;17.974;2022-08-19T03:30:58;35.45;;;25.88;;
71475;SDS011;59286;59.274;17.974;2022-08-19T03:33:34;33.65;;;23.95;;
71475;SDS011;59286;59.274;17.974;2022-08-19T03:36:17;31.63;;;22.33;;
71475;SDS011;59286;59.274;17.974;2022-08-19T03:38:52;40.13;;;26.33;;
71475;SDS011;59286;59.274;17.974;2022-08-19T03:41:31;45.42;;;29.30;;
71475;SDS011;59286;59.274;17.974;2022-08-19T03:44:01;35.28;;;26.25;;
71475;SDS011;59286;59.274;17.974;2022-08-19T03:46:28;40.33;;;28.00;;
71475;SDS011;59286;59.274;17.974;2022-08-19T03:48:55;51.30;;;31.85;;
71475;SDS011;59286;59.274;17.974;2022-08-19T03:51:26;34.85;;;25.77;;
71475;SDS011;59286;59.274;17.974;2022-08-19T03:53:55;42.38;;;27.80;;
71475;SDS011;59286;59.274;17.974;2022-08-19T03:56:22;32.50;;;24.55;;
71475;SDS011;59286;59.274;17.974;2022-08-19T03:58:50;31.40;;;22.67;;
71475;SDS011;59286;59.274;17.974;2022-08-19T04:01:16;25.60;;;20.90;;
71475;SDS011;59286;59.274;17.974;2022-08-19T04:03:44;53.83;;;33.38;;
71475;SDS011;59286;59.274;17.974;2022-08-19T04:06:18;64.47;;;34.15;;
71475;SDS011;59286;59.274;17.974;2022-08-19T04:08:47;35.00;;;25.15;;
71475;SDS011;59286;59.274;17.974;2022-08-19T04:11:15;47.03;;;28.90;;
71475;SDS011;59286;59.274;17.974;2022-08-19T04:13:46;33.03;;;22.35;;
71475;SDS011;59286;59.274;17.974;2022-08-19T04:16:12;45.75;;;26.98;;
71475;SDS011;59286;59.274;17.974;2022-08-19T04:18:39;48.42;;;28.58;;
71475;SDS011;59286;59.274;17.974;2022-08-19T04:21:05;44.33;;;28.52;;
71475;SDS011;59286;59.274;17.974;2022-08-19T04:23:32;53.17;;;30.50;;
71475;SDS011;59286;59.274;17.974;2022-08-19T04:25:59;26.48;;;19.33;;
71475;SDS011;59286;59.274;17.974;2022-08-19T04:28:24;35.47;;;22.65;;
71475;SDS011;59286;59.274;17.974;2022-08-19T04:30:51;35.88;;;24.80;;
71475;SDS011;59286;59.274;17.974;2022-08-19T04:33:20;30.05;;;21.77;;
71475;SDS011;59286;59.274;17.974;2022-08-19T04:35:48;36.78;;;25.23;;
71475;SDS011;59286;59.274;17.974;2022-08-19T04:38:15;36.15;;;26.17;;
71475;SDS011;59286;59.274;17.974;2022-08-19T04:40:43;35.72;;;25.40;;
71475;SDS011;59286;59.274;17.974;2022-08-19T04:43:29;34.47;;;24.40;;
71475;SDS011;59286;59.274;17.974;2022-08-19T04:45:56;36.15;;;24.27;;
71475;SDS011;59286;59.274;17.974;2022-08-19T04:48:22;36.63;;;23.45;;
71475;SDS011;59286;59.274;17.974;2022-08-19T04:50:57;26.85;;;20.08;;
71475;SDS011;59286;59.274;17.974;2022-08-19T04:53:33;48.42;;;28.75;;
71475;SDS011;59286;59.274;17.974;2022-08-19T04:56:03;31.02;;;22.67;;
71475;SDS011;59286;59.274;17.974;2022-08-19T04:58:34;24.27;;;18.42;;
71475;SDS011;59286;59.274;17.974;2022-08-19T05:01:01;27.98;;;20.13;;
71475;SDS011;59286;59.274;17.974;2022-08-19T05:03:26;31.95;;;22.08;;
71475;SDS011;59286;59.274;17.974;2022-08-19T05:05:52;36.17;;;23.80;;
71475;SDS011;59286;59.274;17.974;2022-08-19T05:08:19;34.72;;;23.50;;
71475;SDS011;59286;59.274;17.974;2022-08-19T05:10:47;30.20;;;21.95;;
71475;SDS011;59286;59.274;17.974;2022-08-19T05:13:15;31.58;;;22.65;;
71475;SDS011;59286;59.274;17.974;2022-08-19T05:15:42;42.80;;;28.45;;
71475;SDS011;59286;59.274;17.974;2022-08-19T05:18:08;39.85;;;25.42;;
71475;SDS011;59286;59.274;17.974;2022-08-19T05:20:53;36.08;;;23.40;;
71475;SDS011;59286;59.274;17.974;2022-08-19T05:23:37;33.40;;;22.00;;
71475;SDS011;59286;59.274;17.974;2022-08-19T05:26:03;25.83;;;19.33;;
71475;SDS011;59286;59.274;17.974;2022-08-19T05:28:29;26.23;;;19.35;;
71475;SDS011;59286;59.274;17.974;2022-08-19T05:30:55;30.67;;;19.65;;
71475;SDS011;59286;59.274;17.974;2022-08-19T05:33:21;26.52;;;16.92;;
71475;SDS011;59286;59.274;17.974;2022-08-19T05:35:47;30.10;;;21.00;;
71475;SDS011;59286;59.274;17.974;2022-08-19T05:38:14;32.75;;;20.15;;
71475;SDS011;59286;59.274;17.974;2022-08-19T05:40:41;25.70;;;18.02;;
71475;SDS011;59286;59.274;17.974;2022-08-19T05:43:11;27.13;;;17.20;;
71475;SDS011;59286;59.274;17.974;2022-08-19T05:45:40;24.13;;;15.75;;
71475;SDS011;59286;59.274;17.974;2022-08-19T05:48:05;27.58;;;17.63;;
71475;SDS011;59286;59.274;17.974;2022-08-19T05:50:30;29.75;;;18.17;;
71475;SDS011;59286;59.274;17.974;2022-08-19T05:52:56;28.30;;;17.25;;
71475;SDS011;59286;59.274;17.974;2022-08-19T05:55:21;19.65;;;15.05;;
71475;SDS011;59286;59.274;17.974;2022-08-19T05:57:48;21.33;;;14.63;;
71475;SDS011;59286;59.274;17.974;2022-08-19T06:00:14;19.50;;;13.35;;
71475;SDS011;59286;59.274;17.974;2022-08-19T06:02:40;22.05;;;13.60;;
71475;SDS011;59286;59.274;17.974;2022-08-19T06:05:06;21.55;;;12.85;;
71475;SDS011;59286;59.274;17.974;2022-08-19T06:07:34;23.92;;;12.98;;
71475;SDS011;59286;59.274;17.974;2022-08-19T06:10:00;18.60;;;11.68;;
71475;SDS011;59286;59.274;17.974;2022-08-19T06:12:29;13.52;;;10.43;;
71475;SDS011;59286;59.274;17.974;2022-08-19T06:14:59;12.45;;;8.80;;
71475;SDS011;59286;59.274;17.974;2022-08-19T06:17:27;17.80;;;9.88;;
71475;SDS011;59286;59.274;17.974;2022-08-19T06:19:54;15.23;;;9.88;;
71475;SDS011;59286;59.274;17.974;2022-08-19T06:22:20;16.98;;;9.23;;
71475;SDS011;59286;59.274;17.974;2022-08-19T06:24:46;15.80;;;9.30;;
71475;SDS011;59286;59.274;17.974;2022-08-19T06:27:11;15.45;;;9.07;;
71475;SDS011;59286;59.274;17.974;2022-08-19T06:29:37;15.15;;;8.32;;
71475;SDS011;59286;59.274;17.974;2022-08-19T06:32:03;13.07;;;8.13;;
71475;SDS011;59286;59.274;17.974;2022-08-19T06:34:30;10.45;;;8.02;;
71475;SDS011;59286;59.274;17.974;2022-08-19T06:36:58;11.02;;;6.97;;
71475;SDS011;59286;59.274;17.974;2022-08-19T06:39:29;10.45;;;6.22;;
71475;SDS011;59286;59.274;17.974;2022-08-19T06:41:59;16.25;;;6.18;;
71475;SDS011;59286;59.274;17.974;2022-08-19T06:44:27;13.30;;;5.68;;
71475;SDS011;59286;59.274;17.974;2022-08-19T06:46:54;10.32;;;5.70;;
71475;SDS011;59286;59.274;17.974;2022-08-19T06:49:21;8.15;;;5.50;;
71475;SDS011;59286;59.274;17.974;2022-08-19T06:51:47;15.00;;;6.25;;
71475;SDS011;59286;59.274;17.974;2022-08-19T06:54:14;7.53;;;5.47;;
71475;SDS011;59286;59.274;17.974;2022-08-19T06:56:41;9.43;;;5.57;;
71475;SDS011;59286;59.274;17.974;2022-08-19T06:59:12;12.43;;;5.55;;
71475;SDS011;59286;59.274;17.974;2022-08-19T07:01:45;12.13;;;4.93;;
71475;SDS011;59286;59.274;17.974;2022-08-19T07:04:15;11.32;;;5.40;;
71475;SDS011;59286;59.274;17.974;2022-08-19T07:06:43;8.88;;;5.25;;
71475;SDS011;59286;59.274;17.974;2022-08-19T07:09:09;14.15;;;5.35;;
71475;SDS011;59286;59.274;17.974;2022-08-19T07:11:37;12.60;;;5.28;;
71475;SDS011;59286;59.274;17.974;2022-08-19T07:14:03;10.23;;;4.97;;
71475;SDS011;59286;59.274;17.974;2022-08-19T07:16:29;12.43;;;5.50;;
71475;SDS011;59286;59.274;17.974;2022-08-19T07:18:55;10.95;;;5.40;;
71475;SDS011;59286;59.274;17.974;2022-08-19T07:21:22;12.23;;;5.38;;
71475;SDS011;59286;59.274;17.974;2022-08-19T07:23:53;11.68;;;4.90;;
71475;SDS011;59286;59.274;17.974;2022-08-19T07:26:25;13.02;;;5.15;;
71475;SDS011;59286;59.274;17.974;2022-08-19T07:28:55;13.60;;;5.07;;
71475;SDS011;59286;59.274;17.974;2022-08-19T07:31:23;11.80;;;4.85;;
71475;SDS011;59286;59.274;17.974;2022-08-19T07:33:51;11.52;;;5.10;;
71475;SDS011;59286;59.274;17.974;2022-08-19T07:36:18;14.13;;;5.28;;
71475;SDS011;59286;59.274;17.974;2022-08-19T07:38:47;7.97;;;4.57;;
71475;SDS011;59286;59.274;17.974;2022-08-19T07:41:17;10.55;;;4.70;;
71475;SDS011;59286;59.274;17.974;2022-08-19T07:43:45;13.00;;;4.97;;
71475;SDS011;59286;59.274;17.974;2022-08-19T07:46:11;18.35;;;5.07;;
71475;SDS011;59286;59.274;17.974;2022-08-19T07:48:38;11.25;;;4.78;;
71475;SDS011;59286;59.274;17.974;2022-08-19T07:51:06;14.23;;;4.60;;
71475;SDS011;59286;59.274;17.974;2022-08-19T07:53:33;9.40;;;4.63;;
71475;SDS011;59286;59.274;17.974;2022-08-19T07:55:59;10.95;;;4.68;;
71475;SDS011;59286;59.274;17.974;2022-08-19T07:58:29;13.95;;;4.82;;
71475;SDS011;59286;59.274;17.974;2022-08-19T08:00:59;11.75;;;5.40;;
71475;SDS011;59286;59.274;17.974;2022-08-19T08:03:28;10.85;;;4.53;;
71475;SDS011;59286;59.274;17.974;2022-08-19T08:06:13;8.25;;;4.30;;
71475;SDS011;59286;59.274;17.974;2022-08-19T08:09:09;14.10;;;5.03;;
71475;SDS011;59286;59.274;17.974;2022-08-19T08:11:42;10.30;;;4.00;;
71475;SDS011;59286;59.274;17.974;2022-08-19T08:14:31;11.95;;;4.72;;
71475;SDS011;59286;59.274;17.974;2022-08-19T08:17:00;12.55;;;4.32;;
71475;SDS011;59286;59.274;17.974;2022-08-19T08:19:27;17.48;;;4.53;;
71475;SDS011;59286;59.274;17.974;2022-08-19T08:21:57;8.07;;;3.72;;
71475;SDS011;59286;59.274;17.974;2022-08-19T08:24:24;13.05;;;4.43;;
71475;SDS011;59286;59.274;17.974;2022-08-19T08:26:53;10.30;;;4.13;;
71475;SDS011;59286;59.274;17.974;2022-08-19T08:29:18;12.20;;;4.13;;
71475;SDS011;59286;59.274;17.974;2022-08-19T08:31:45;10.52;;;3.95;;
71475;SDS011;59286;59.274;17.974;2022-08-19T08:34:12;12.13;;;3.85;;
71475;SDS011;59286;59.274;17.974;2022-08-19T08:36:39;7.45;;;3.90;;
71475;SDS011;59286;59.274;17.974;2022-08-19T08:39:08;12.90;;;3.92;;
71475;SDS011;59286;59.274;17.974;2022-08-19T08:44:23;16.80;;;4.07;;
71475;SDS011;59286;59.274;17.974;2022-08-19T08:47:13;9.10;;;3.58;;
71475;SDS011;59286;59.274;17.974;2022-08-19T08:52:20;10.50;;;3.45;;
71475;SDS011;59286;59.274;17.974;2022-08-19T08:54:52;7.40;;;3.45;;
71475;SDS011;59286;59.274;17.974;2022-08-19T09:00:05;13.50;;;3.53;;
71475;SDS011;59286;59.274;17.974;2022-08-19T09:02:41;11.55;;;3.92;;
71475;SDS011;59286;59.274;17.974;2022-08-19T09:05:08;8.98;;;3.67;;
71475;SDS011;59286;59.274;17.974;2022-08-19T09:10:34;7.27;;;3.30;;
71475;SDS011;59286;59.274;17.974;2022-08-19T09:32:46;10.93;;;3.55;;
71475;SDS011;59286;59.274;17.974;2022-08-19T09:35:12;7.78;;;3.60;;
71475;SDS011;59286;59.274;17.974;2022-08-19T09:37:38;10.55;;;3.45;;
71475;SDS011;59286;59.274;17.974;2022-08-19T09:40:04;9.30;;;3.75;;
71475;SDS011;59286;59.274;17.974;2022-08-19T09:42:30;8.02;;;3.30;;
71475;SDS011;59286;59.274;17.974;2022-08-19T09:44:55;12.90;;;3.95;;
71475;SDS011;59286;59.274;17.974;2022-08-19T09:50:42;13.25;;;3.72;;
71475;SDS011;59286;59.274;17.974;2022-08-19T09:53:08;10.73;;;3.88;;
71475;SDS011;59286;59.274;17.974;2022-08-19T09:55:33;9.85;;;3.85;;
71475;SDS011;59286;59.274;17.974;2022-08-19T09:58:00;8.88;;;3.33;;
71475;SDS011;59286;59.274;17.974;2022-08-19T10:00:28;10.18;;;3.25;;
71475;SDS011;59286;59.274;17.974;2022-08-19T10:02:56;8.23;;;3.30;;
71475;SDS011;59286;59.274;17.974;2022-08-19T10:05:22;13.77;;;3.65;;
71475;SDS011;59286;59.274;17.974;2022-08-19T10:08:05;11.30;;;3.53;;
71475;SDS011;59286;59.274;17.974;2022-08-19T10:10:35;9.43;;;3.28;;
71475;SDS011;59286;59.274;17.974;2022-08-19T10:13:01;6.25;;;2.65;;
71475;SDS011;59286;59.274;17.974;2022-08-19T10:15:26;8.57;;;2.92;;
71475;SDS011;59286;59.274;17.974;2022-08-19T10:17:52;11.45;;;3.00;;
71475;SDS011;59286;59.274;17.974;2022-08-19T10:20:17;8.68;;;3.05;;
71475;SDS011;59286;59.274;17.974;2022-08-19T10:22:43;7.85;;;2.80;;
71475;SDS011;59286;59.274;17.974;2022-08-19T10:25:09;8.13;;;3.13;;
71475;SDS011;59286;59.274;17.974;2022-08-19T10:27:34;8.48;;;3.38;;
71475;SDS011;59286;59.274;17.974;2022-08-19T10:30:00;6.05;;;2.85;;
71475;SDS011;59286;59.274;17.974;2022-08-19T10:32:26;7.93;;;2.85;;
71475;SDS011;59286;59.274;17.974;2022-08-19T10:34:52;7.47;;;3.20;;
71475;SDS011;59286;59.274;17.974;2022-08-19T10:37:18;10.77;;;3.38;;
71475;SDS011;59286;59.274;17.974;2022-08-19T10:39:45;6.68;;;3.28;;
71475;SDS011;59286;59.274;17.974;2022-08-19T10:42:12;8.07;;;2.88;;
71475;SDS011;59286;59.274;17.974;2022-08-19T10:44:38;9.65;;;2.70;;
71475;SDS011;59286;59.274;17.974;2022-08-19T10:47:04;9.40;;;2.83;;
71475;SDS011;59286;59.274;17.974;2022-08-19T10:49:30;11.40;;;3.35;;
71475;SDS011;59286;59.274;17.974;2022-08-19T10:51:57;9.32;;;3.35;;
71475;SDS011;59286;59.274;17.974;2022-08-19T10:54:41;6.20;;;2.78;;
71475;SDS011;59286;59.274;17.974;2022-08-19T10:57:25;5.75;;;2.50;;
71475;SDS011;59286;59.274;17.974;2022-08-19T10:59:55;8.52;;;2.92;;
71475;SDS011;59286;59.274;17.974;2022-08-19T11:02:26;6.95;;;2.58;;
71475;SDS011;59286;59.274;17.974;2022-08-19T11:04:58;6.85;;;2.80;;
71475;SDS011;59286;59.274;17.974;2022-08-19T11:07:24;6.30;;;2.90;;
71475;SDS011;59286;59.274;17.974;2022-08-19T11:09:51;7.45;;;2.58;;
71475;SDS011;59286;59.274;17.974;2022-08-19T11:12:17;5.75;;;2.70;;
71475;SDS011;59286;59.274;17.974;2022-08-19T11:14:44;8.60;;;3.05;;
71475;SDS011;59286;59.274;17.974;2022-08-19T11:17:09;6.40;;;2.88;;
71475;SDS011;59286;59.274;17.974;2022-08-19T11:19:38;5.38;;;2.65;;
71475;SDS011;59286;59.274;17.974;2022-08-19T11:22:03;10.18;;;2.72;;
71475;SDS011;59286;59.274;17.974;2022-08-19T11:24:33;7.97;;;2.80;;
71475;SDS011;59286;59.274;17.974;2022-08-19T11:27:05;4.93;;;2.60;;
71475;SDS011;59286;59.274;17.974;2022-08-19T11:29:32;8.85;;;2.97;;
71475;SDS011;59286;59.274;17.974;2022-08-19T11:31:59;11.98;;;3.08;;
71475;SDS011;59286;59.274;17.974;2022-08-19T11:34:26;12.57;;;2.67;;
71475;SDS011;59286;59.274;17.974;2022-08-19T11:36:53;5.10;;;2.67;;
71475;SDS011;59286;59.274;17.974;2022-08-19T11:39:23;7.82;;;2.55;;
71475;SDS011;59286;59.274;17.974;2022-08-19T11:41:50;8.30;;;3.50;;
71475;SDS011;59286;59.274;17.974;2022-08-19T11:44:15;6.18;;;2.80;;
71475;SDS011;59286;59.274;17.974;2022-08-19T11:46:41;9.25;;;2.90;;
71475;SDS011;59286;59.274;17.974;2022-08-19T11:49:11;8.85;;;3.00;;
71475;SDS011;59286;59.274;17.974;2022-08-19T11:51:38;8.40;;;2.60;;
71475;SDS011;59286;59.274;17.974;2022-08-19T11:54:04;7.35;;;2.70;;
71475;SDS011;59286;59.274;17.974;2022-08-19T11:56:30;9.07;;;3.05;;
71475;SDS011;59286;59.274;17.974;2022-08-19T11:58:56;6.85;;;2.90;;
71475;SDS011;59286;59.274;17.974;2022-08-19T12:01:22;9.77;;;3.10;;
71475;SDS011;59286;59.274;17.974;2022-08-19T12:03:49;7.82;;;3.13;;
71475;SDS011;59286;59.274;17.974;2022-08-19T12:06:17;11.05;;;2.83;;
71475;SDS011;59286;59.274;17.974;2022-08-19T12:08:52;8.52;;;3.15;;
71475;SDS011;59286;59.274;17.974;2022-08-19T12:11:18;8.23;;;3.05;;
71475;SDS011;59286;59.274;17.974;2022-08-19T12:13:44;7.93;;;2.60;;
71475;SDS011;59286;59.274;17.974;2022-08-19T12:16:15;8.45;;;2.60;;
71475;SDS011;59286;59.274;17.974;2022-08-19T12:18:43;5.55;;;2.70;;
71475;SDS011;59286;59.274;17.974;2022-08-19T12:21:11;9.07;;;2.90;;
71475;SDS011;59286;59.274;17.974;2022-08-19T12:23:40;6.45;;;2.58;;
71475;SDS011;59286;59.274;17.974;2022-08-19T12:26:06;9.13;;;3.10;;
71475;SDS011;59286;59.274;17.974;2022-08-19T12:28:35;5.90;;;3.10;;
71475;SDS011;59286;59.274;17.974;2022-08-19T12:31:00;7.25;;;2.83;;
71475;SDS011;59286;59.274;17.974;2022-08-19T12:33:26;16.70;;;2.92;;
71475;SDS011;59286;59.274;17.974;2022-08-19T12:35:53;7.80;;;2.60;;
71475;SDS011;59286;59.274;17.974;2022-08-19T12:38:19;10.90;;;2.50;;
71475;SDS011;59286;59.274;17.974;2022-08-19T12:40:45;10.60;;;2.83;;
71475;SDS011;59286;59.274;17.974;2022-08-19T12:43:11;8.70;;;2.65;;
71475;SDS011;59286;59.274;17.974;2022-08-19T12:45:38;14.38;;;2.92;;
71475;SDS011;59286;59.274;17.974;2022-08-19T12:48:04;14.05;;;3.30;;
71475;SDS011;59286;59.274;17.974;2022-08-19T12:50:29;10.68;;;2.78;;
71475;SDS011;59286;59.274;17.974;2022-08-19T12:52:55;9.98;;;2.60;;
71475;SDS011;59286;59.274;17.974;2022-08-19T12:55:22;8.50;;;2.72;;
71475;SDS011;59286;59.274;17.974;2022-08-19T12:57:47;4.72;;;2.72;;
71475;SDS011;59286;59.274;17.974;2022-08-19T13:00:17;10.73;;;3.40;;
71475;SDS011;59286;59.274;17.974;2022-08-19T13:02:46;5.45;;;3.10;;
71475;SDS011;59286;59.274;17.974;2022-08-19T13:05:15;7.20;;;3.05;;
71475;SDS011;59286;59.274;17.974;2022-08-19T13:07:44;9.90;;;2.70;;
71475;SDS011;59286;59.274;17.974;2022-08-19T13:10:13;5.18;;;2.45;;
71475;SDS011;59286;59.274;17.974;2022-08-19T13:12:42;9.95;;;3.15;;
71475;SDS011;59286;59.274;17.974;2022-08-19T13:15:08;5.25;;;2.78;;
71475;SDS011;59286;59.274;17.974;2022-08-19T13:17:35;7.72;;;2.85;;
71475;SDS011;59286;59.274;17.974;2022-08-19T13:20:02;7.75;;;3.20;;
71475;SDS011;59286;59.274;17.974;2022-08-19T13:22:28;5.72;;;2.70;;
71475;SDS011;59286;59.274;17.974;2022-08-19T13:24:54;8.63;;;2.90;;
71475;SDS011;59286;59.274;17.974;2022-08-19T13:27:19;12.38;;;3.22;;
71475;SDS011;59286;59.274;17.974;2022-08-19T13:29:45;14.20;;;3.60;;
71475;SDS011;59286;59.274;17.974;2022-08-19T13:32:29;10.13;;;3.20;;
71475;SDS011;59286;59.274;17.974;2022-08-19T13:35:14;15.63;;;3.40;;
71475;SDS011;59286;59.274;17.974;2022-08-19T13:37:40;11.13;;;3.50;;
71475;SDS011;59286;59.274;17.974;2022-08-19T13:40:07;8.93;;;3.08;;
71475;SDS011;59286;59.274;17.974;2022-08-19T13:42:39;7.50;;;3.23;;
71475;SDS011;59286;59.274;17.974;2022-08-19T13:45:06;12.40;;;3.15;;
71475;SDS011;59286;59.274;17.974;2022-08-19T13:47:32;7.72;;;3.20;;
71475;SDS011;59286;59.274;17.974;2022-08-19T13:50:09;10.85;;;3.47;;
71475;SDS011;59286;59.274;17.974;2022-08-19T13:52:36;7.45;;;3.17;;
71475;SDS011;59286;59.274;17.974;2022-08-19T13:55:02;9.65;;;3.40;;
71475;SDS011;59286;59.274;17.974;2022-08-19T13:57:29;10.82;;;3.50;;
71475;SDS011;59286;59.274;17.974;2022-08-19T13:59:55;10.02;;;3.20;;
71475;SDS011;59286;59.274;17.974;2022-08-19T14:02:20;8.85;;;3.53;;
71475;SDS011;59286;59.274;17.974;2022-08-19T14:04:46;17.90;;;4.07;;
71475;SDS011;59286;59.274;17.974;2022-08-19T14:07:11;12.85;;;3.72;;
71475;SDS011;59286;59.274;17.974;2022-08-19T14:09:37;7.35;;;3.08;;
71475;SDS011;59286;59.274;17.974;2022-08-19T14:12:02;7.55;;;3.60;;
71475;SDS011;59286;59.274;17.974;2022-08-19T14:14:29;9.85;;;3.45;;
71475;SDS011;59286;59.274;17.974;2022-08-19T14:16:55;16.08;;;3.47;;
71475;SDS011;59286;59.274;17.974;2022-08-19T14:19:20;12.25;;;3.22;;
71475;SDS011;59286;59.274;17.974;2022-08-19T14:21:46;7.32;;;3.40;;
71475;SDS011;59286;59.274;17.974;2022-08-19T14:24:11;10.50;;;3.70;;
71475;SDS011;59286;59.274;17.974;2022-08-19T14:26:37;13.15;;;3.20;;
71475;SDS011;59286;59.274;17.974;2022-08-19T14:29:03;7.13;;;3.05;;
71475;SDS011;59286;59.274;17.974;2022-08-19T14:31:28;12.07;;;3.45;;
71475;SDS011;59286;59.274;17.974;2022-08-19T14:33:54;8.25;;;3.13;;
71475;SDS011;59286;59.274;17.974;2022-08-19T14:36:20;13.90;;;3.92;;
71475;SDS011;59286;59.274;17.974;2022-08-19T14:38:48;13.25;;;3.60;;
71475;SDS011;59286;59.274;17.974;2022-08-19T14:44:22;11.27;;;3.45;;
71475;SDS011;59286;59.274;17.974;2022-08-19T14:46:48;8.25;;;3.10;;
71475;SDS011;59286;59.274;17.974;2022-08-19T14:49:13;9.45;;;3.95;;
71475;SDS011;59286;59.274;17.974;2022-08-19T14:51:39;11.73;;;3.35;;
71475;SDS011;59286;59.274;17.974;2022-08-19T14:54:04;10.35;;;3.88;;
71475;SDS011;59286;59.274;17.974;2022-08-19T14:56:30;11.35;;;3.65;;
71475;SDS011;59286;59.274;17.974;2022-08-19T14:58:56;12.48;;;3.53;;
71475;SDS011;59286;59.274;17.974;2022-08-19T15:01:25;8.05;;;3.35;;